sensor_id;sensor_type;location;lat;lon;timestamp;P1;durP1;ratioP1;P2;durP2;ratioP2
2906;SDS011;1463;51.070;16.998;2023-08-06T00:01:11;4.17;;;3.70;;
2906;SDS011;1463;51.070;16.998;2023-08-06T00:03:39;3.60;;;3.27;;
2906;SDS011;1463;51.070;16.998;2023-08-06T00:06:08;4.57;;;3.28;;
2906;SDS011;1463;51.070;16.998;2023-08-06T00:08:35;3.90;;;3.33;;
2906;SDS011;1463;51.070;16.998;2023-08-06T00:11:03;3.70;;;2.80;;
2906;SDS011;1463;51.070;16.998;2023-08-06T00:13:30;3.60;;;3.30;;
2906;SDS011;1463;51.070;16.998;2023-08-06T00:16:07;3.60;;;2.97;;
2906;SDS011;1463;51.070;16.998;2023-08-06T00:18:36;3.53;;;3.23;;
2906;SDS011;1463;51.070;16.998;2023-08-06T00:21:03;3.00;;;2.30;;
2906;SDS011;1463;51.070;16.998;2023-08-06T00:23:32;5.10;;;3.50;;
2906;SDS011;1463;51.070;16.998;2023-08-06T00:26:00;2.90;;;2.53;;
2906;SDS011;1463;51.070;16.998;2023-08-06T00:28:27;2.83;;;2.50;;
2906;SDS011;1463;51.070;16.998;2023-08-06T00:30:55;3.23;;;2.67;;
2906;SDS011;1463;51.070;16.998;2023-08-06T00:33:23;5.13;;;2.93;;
2906;SDS011;1463;51.070;16.998;2023-08-06T00:35:51;3.20;;;2.40;;
2906;SDS011;1463;51.070;16.998;2023-08-06T00:38:19;3.67;;;2.73;;
2906;SDS011;1463;51.070;16.998;2023-08-06T00:40:48;3.27;;;2.33;;
2906;SDS011;1463;51.070;16.998;2023-08-06T00:43:18;2.90;;;2.30;;
2906;SDS011;1463;51.070;16.998;2023-08-06T00:45:46;4.30;;;2.30;;
2906;SDS011;1463;51.070;16.998;2023-08-06T00:48:13;3.10;;;2.80;;
2906;SDS011;1463;51.070;16.998;2023-08-06T00:50:41;4.87;;;2.30;;
2906;SDS011;1463;51.070;16.998;2023-08-06T00:53:09;4.80;;;2.27;;
2906;SDS011;1463;51.070;16.998;2023-08-06T00:55:37;2.60;;;2.00;;
2906;SDS011;1463;51.070;16.998;2023-08-06T00:58:09;2.60;;;2.10;;
2906;SDS011;1463;51.070;16.998;2023-08-06T01:00:37;2.75;;;2.05;;
2906;SDS011;1463;51.070;16.998;2023-08-06T01:03:05;2.50;;;1.70;;
2906;SDS011;1463;51.070;16.998;2023-08-06T01:05:32;2.80;;;1.90;;
2906;SDS011;1463;51.070;16.998;2023-08-06T01:08:03;2.40;;;1.93;;
2906;SDS011;1463;51.070;16.998;2023-08-06T01:10:48;5.03;;;1.80;;
2906;SDS011;1463;51.070;16.998;2023-08-06T01:13:28;2.57;;;1.80;;
2906;SDS011;1463;51.070;16.998;2023-08-06T01:16:00;2.30;;;1.70;;
2906;SDS011;1463;51.070;16.998;2023-08-06T01:18:28;2.42;;;2.08;;
2906;SDS011;1463;51.070;16.998;2023-08-06T01:20:57;3.42;;;2.40;;
2906;SDS011;1463;51.070;16.998;2023-08-06T01:23:24;2.37;;;1.77;;
2906;SDS011;1463;51.070;16.998;2023-08-06T01:25:55;2.70;;;1.90;;
2906;SDS011;1463;51.070;16.998;2023-08-06T01:28:30;2.38;;;1.98;;
2906;SDS011;1463;51.070;16.998;2023-08-06T01:31:02;3.13;;;1.67;;
2906;SDS011;1463;51.070;16.998;2023-08-06T01:33:35;2.57;;;1.93;;
2906;SDS011;1463;51.070;16.998;2023-08-06T01:36:08;2.87;;;1.80;;
2906;SDS011;1463;51.070;16.998;2023-08-06T01:38:36;2.77;;;1.77;;
2906;SDS011;1463;51.070;16.998;2023-08-06T01:41:04;3.13;;;1.60;;
2906;SDS011;1463;51.070;16.998;2023-08-06T01:43:32;3.33;;;1.63;;
2906;SDS011;1463;51.070;16.998;2023-08-06T01:45:59;2.10;;;1.50;;
2906;SDS011;1463;51.070;16.998;2023-08-06T01:48:26;2.27;;;1.43;;
2906;SDS011;1463;51.070;16.998;2023-08-06T01:50:56;3.30;;;1.60;;
2906;SDS011;1463;51.070;16.998;2023-08-06T01:53:25;4.60;;;1.87;;
2906;SDS011;1463;51.070;16.998;2023-08-06T01:55:52;1.90;;;1.00;;
2906;SDS011;1463;51.070;16.998;2023-08-06T01:58:19;2.37;;;1.37;;
2906;SDS011;1463;51.070;16.998;2023-08-06T02:00:47;2.53;;;1.43;;
2906;SDS011;1463;51.070;16.998;2023-08-06T02:03:14;3.37;;;1.90;;
2906;SDS011;1463;51.070;16.998;2023-08-06T02:05:44;3.40;;;1.73;;
2906;SDS011;1463;51.070;16.998;2023-08-06T02:08:12;2.90;;;1.40;;
2906;SDS011;1463;51.070;16.998;2023-08-06T02:10:41;2.50;;;1.73;;
2906;SDS011;1463;51.070;16.998;2023-08-06T02:13:08;2.50;;;1.40;;
2906;SDS011;1463;51.070;16.998;2023-08-06T02:15:36;2.30;;;1.57;;
2906;SDS011;1463;51.070;16.998;2023-08-06T02:18:08;5.88;;;1.90;;
2906;SDS011;1463;51.070;16.998;2023-08-06T02:20:35;2.20;;;1.50;;
2906;SDS011;1463;51.070;16.998;2023-08-06T02:23:03;2.67;;;1.47;;
2906;SDS011;1463;51.070;16.998;2023-08-06T02:25:30;1.70;;;1.00;;
2906;SDS011;1463;51.070;16.998;2023-08-06T02:27:59;1.77;;;1.07;;
2906;SDS011;1463;51.070;16.998;2023-08-06T02:30:27;1.97;;;1.10;;
2906;SDS011;1463;51.070;16.998;2023-08-06T02:32:55;3.80;;;1.20;;
2906;SDS011;1463;51.070;16.998;2023-08-06T02:35:23;2.07;;;1.20;;
2906;SDS011;1463;51.070;16.998;2023-08-06T02:37:50;2.10;;;1.10;;
2906;SDS011;1463;51.070;16.998;2023-08-06T02:40:18;2.40;;;1.70;;
2906;SDS011;1463;51.070;16.998;2023-08-06T02:42:45;1.80;;;1.10;;
2906;SDS011;1463;51.070;16.998;2023-08-06T02:45:16;2.20;;;1.10;;
2906;SDS011;1463;51.070;16.998;2023-08-06T02:47:43;2.47;;;1.00;;
2906;SDS011;1463;51.070;16.998;2023-08-06T02:50:11;3.20;;;1.47;;
2906;SDS011;1463;51.070;16.998;2023-08-06T02:52:38;1.70;;;0.93;;
2906;SDS011;1463;51.070;16.998;2023-08-06T02:55:06;2.03;;;1.25;;
2906;SDS011;1463;51.070;16.998;2023-08-06T02:57:34;1.90;;;1.00;;
2906;SDS011;1463;51.070;16.998;2023-08-06T03:00:01;2.00;;;1.30;;
2906;SDS011;1463;51.070;16.998;2023-08-06T03:02:31;1.60;;;0.87;;
2906;SDS011;1463;51.070;16.998;2023-08-06T03:04:58;2.50;;;1.52;;
2906;SDS011;1463;51.070;16.998;2023-08-06T03:07:25;1.60;;;0.93;;
2906;SDS011;1463;51.070;16.998;2023-08-06T03:09:53;2.17;;;0.70;;
2906;SDS011;1463;51.070;16.998;2023-08-06T03:12:20;1.52;;;0.73;;
2906;SDS011;1463;51.070;16.998;2023-08-06T03:14:50;1.90;;;0.90;;
2906;SDS011;1463;51.070;16.998;2023-08-06T03:17:18;2.70;;;1.00;;
2906;SDS011;1463;51.070;16.998;2023-08-06T03:19:47;1.90;;;0.67;;
2906;SDS011;1463;51.070;16.998;2023-08-06T03:22:17;1.83;;;0.70;;
2906;SDS011;1463;51.070;16.998;2023-08-06T03:24:44;1.65;;;0.68;;
2906;SDS011;1463;51.070;16.998;2023-08-06T03:27:12;1.50;;;0.75;;
2906;SDS011;1463;51.070;16.998;2023-08-06T03:29:39;1.73;;;0.75;;
2906;SDS011;1463;51.070;16.998;2023-08-06T03:32:07;1.53;;;0.70;;
2906;SDS011;1463;51.070;16.998;2023-08-06T03:34:35;1.40;;;0.60;;
2906;SDS011;1463;51.070;16.998;2023-08-06T03:37:05;1.57;;;0.73;;
2906;SDS011;1463;51.070;16.998;2023-08-06T03:39:33;1.95;;;0.70;;
2906;SDS011;1463;51.070;16.998;2023-08-06T03:42:01;1.42;;;0.65;;
2906;SDS011;1463;51.070;16.998;2023-08-06T03:44:28;1.30;;;0.60;;
2906;SDS011;1463;51.070;16.998;2023-08-06T03:46:57;1.80;;;0.80;;
2906;SDS011;1463;51.070;16.998;2023-08-06T03:49:24;1.70;;;0.80;;
2906;SDS011;1463;51.070;16.998;2023-08-06T03:51:52;1.53;;;0.73;;
2906;SDS011;1463;51.070;16.998;2023-08-06T03:54:23;1.65;;;0.60;;
2906;SDS011;1463;51.070;16.998;2023-08-06T03:56:52;1.55;;;0.60;;
2906;SDS011;1463;51.070;16.998;2023-08-06T03:59:19;1.40;;;0.60;;
2906;SDS011;1463;51.070;16.998;2023-08-06T04:01:47;1.90;;;0.60;;
2906;SDS011;1463;51.070;16.998;2023-08-06T04:04:14;2.03;;;0.60;;
2906;SDS011;1463;51.070;16.998;2023-08-06T04:06:42;1.50;;;0.50;;
2906;SDS011;1463;51.070;16.998;2023-08-06T04:09:09;1.50;;;0.70;;
2906;SDS011;1463;51.070;16.998;2023-08-06T04:11:39;1.40;;;0.60;;
2906;SDS011;1463;51.070;16.998;2023-08-06T04:14:07;1.50;;;0.63;;
2906;SDS011;1463;51.070;16.998;2023-08-06T04:16:35;1.40;;;0.68;;
2906;SDS011;1463;51.070;16.998;2023-08-06T04:19:02;1.65;;;0.68;;
2906;SDS011;1463;51.070;16.998;2023-08-06T04:21:30;1.50;;;0.70;;
2906;SDS011;1463;51.070;16.998;2023-08-06T04:23:57;1.40;;;0.70;;
2906;SDS011;1463;51.070;16.998;2023-08-06T04:26:25;1.50;;;0.70;;
2906;SDS011;1463;51.070;16.998;2023-08-06T04:28:54;1.47;;;0.63;;
2906;SDS011;1463;51.070;16.998;2023-08-06T04:31:21;1.43;;;0.60;;
2906;SDS011;1463;51.070;16.998;2023-08-06T04:33:49;4.22;;;3.80;;
2906;SDS011;1463;51.070;16.998;2023-08-06T04:36:17;2.10;;;1.30;;
2906;SDS011;1463;51.070;16.998;2023-08-06T04:38:44;2.43;;;0.90;;
2906;SDS011;1463;51.070;16.998;2023-08-06T04:41:12;1.50;;;0.60;;
2906;SDS011;1463;51.070;16.998;2023-08-06T04:43:44;1.50;;;0.70;;
2906;SDS011;1463;51.070;16.998;2023-08-06T04:46:14;2.58;;;0.88;;
2906;SDS011;1463;51.070;16.998;2023-08-06T04:48:41;1.60;;;0.70;;
2906;SDS011;1463;51.070;16.998;2023-08-06T04:51:09;2.10;;;0.80;;
2906;SDS011;1463;51.070;16.998;2023-08-06T04:53:36;1.50;;;0.65;;
2906;SDS011;1463;51.070;16.998;2023-08-06T04:56:04;1.83;;;0.80;;
2906;SDS011;1463;51.070;16.998;2023-08-06T04:58:32;2.53;;;1.65;;
2906;SDS011;1463;51.070;16.998;2023-08-06T05:01:00;2.30;;;1.80;;
2906;SDS011;1463;51.070;16.998;2023-08-06T05:03:28;1.60;;;0.82;;
2906;SDS011;1463;51.070;16.998;2023-08-06T05:05:56;2.17;;;1.20;;
2906;SDS011;1463;51.070;16.998;2023-08-06T05:08:23;1.80;;;0.90;;
2906;SDS011;1463;51.070;16.998;2023-08-06T05:10:51;2.00;;;0.95;;
2906;SDS011;1463;51.070;16.998;2023-08-06T05:13:21;2.00;;;0.82;;
2906;SDS011;1463;51.070;16.998;2023-08-06T05:15:49;2.25;;;0.82;;
2906;SDS011;1463;51.070;16.998;2023-08-06T05:18:16;1.95;;;0.98;;
2906;SDS011;1463;51.070;16.998;2023-08-06T05:20:45;1.85;;;0.90;;
2906;SDS011;1463;51.070;16.998;2023-08-06T05:23:13;1.80;;;0.80;;
2906;SDS011;1463;51.070;16.998;2023-08-06T05:25:40;1.92;;;0.88;;
2906;SDS011;1463;51.070;16.998;2023-08-06T05:28:08;1.40;;;0.60;;
2906;SDS011;1463;51.070;16.998;2023-08-06T05:30:38;1.50;;;0.70;;
2906;SDS011;1463;51.070;16.998;2023-08-06T05:33:06;1.60;;;0.93;;
2906;SDS011;1463;51.070;16.998;2023-08-06T05:35:33;1.90;;;0.90;;
2906;SDS011;1463;51.070;16.998;2023-08-06T05:38:05;1.40;;;0.60;;
2906;SDS011;1463;51.070;16.998;2023-08-06T05:40:33;1.85;;;1.00;;
2906;SDS011;1463;51.070;16.998;2023-08-06T05:43:00;2.55;;;0.68;;
2906;SDS011;1463;51.070;16.998;2023-08-06T05:45:28;1.65;;;0.70;;
2906;SDS011;1463;51.070;16.998;2023-08-06T05:47:56;1.87;;;0.60;;
2906;SDS011;1463;51.070;16.998;2023-08-06T05:50:24;1.50;;;0.60;;
2906;SDS011;1463;51.070;16.998;2023-08-06T05:52:51;2.00;;;0.60;;
2906;SDS011;1463;51.070;16.998;2023-08-06T05:55:20;2.15;;;0.60;;
2906;SDS011;1463;51.070;16.998;2023-08-06T05:57:50;1.70;;;0.70;;
2906;SDS011;1463;51.070;16.998;2023-08-06T06:00:18;1.77;;;0.90;;
2906;SDS011;1463;51.070;16.998;2023-08-06T06:02:45;3.00;;;1.75;;
2906;SDS011;1463;51.070;16.998;2023-08-06T06:05:16;2.55;;;1.30;;
2906;SDS011;1463;51.070;16.998;2023-08-06T06:07:43;3.22;;;0.90;;
2906;SDS011;1463;51.070;16.998;2023-08-06T06:10:11;1.70;;;0.70;;
2906;SDS011;1463;51.070;16.998;2023-08-06T06:12:40;1.73;;;0.60;;
2906;SDS011;1463;51.070;16.998;2023-08-06T06:15:11;1.75;;;0.60;;
2906;SDS011;1463;51.070;16.998;2023-08-06T06:17:39;1.50;;;0.60;;
2906;SDS011;1463;51.070;16.998;2023-08-06T06:20:11;2.10;;;0.60;;
2906;SDS011;1463;51.070;16.998;2023-08-06T06:22:39;1.70;;;0.60;;
2906;SDS011;1463;51.070;16.998;2023-08-06T06:25:07;2.22;;;0.60;;
2906;SDS011;1463;51.070;16.998;2023-08-06T06:27:35;2.63;;;0.80;;
2906;SDS011;1463;51.070;16.998;2023-08-06T06:30:04;2.60;;;0.90;;
2906;SDS011;1463;51.070;16.998;2023-08-06T06:32:33;2.67;;;0.80;;
2906;SDS011;1463;51.070;16.998;2023-08-06T06:35:00;1.67;;;0.70;;
2906;SDS011;1463;51.070;16.998;2023-08-06T06:37:28;1.60;;;0.65;;
2906;SDS011;1463;51.070;16.998;2023-08-06T06:39:55;1.67;;;0.68;;
2906;SDS011;1463;51.070;16.998;2023-08-06T06:42:23;2.05;;;0.77;;
2906;SDS011;1463;51.070;16.998;2023-08-06T06:44:50;1.63;;;0.60;;
2906;SDS011;1463;51.070;16.998;2023-08-06T06:47:19;1.98;;;0.70;;
2906;SDS011;1463;51.070;16.998;2023-08-06T06:49:47;2.92;;;0.90;;
2906;SDS011;1463;51.070;16.998;2023-08-06T06:52:14;1.58;;;0.70;;
2906;SDS011;1463;51.070;16.998;2023-08-06T06:54:42;1.90;;;0.70;;
2906;SDS011;1463;51.070;16.998;2023-08-06T06:57:09;1.60;;;0.70;;
2906;SDS011;1463;51.070;16.998;2023-08-06T06:59:37;1.60;;;0.80;;
2906;SDS011;1463;51.070;16.998;2023-08-06T07:02:05;1.90;;;0.90;;
2906;SDS011;1463;51.070;16.998;2023-08-06T07:04:34;2.15;;;0.85;;
2906;SDS011;1463;51.070;16.998;2023-08-06T07:07:02;1.60;;;0.70;;
2906;SDS011;1463;51.070;16.998;2023-08-06T07:09:30;4.20;;;1.08;;
2906;SDS011;1463;51.070;16.998;2023-08-06T07:11:57;2.30;;;1.50;;
2906;SDS011;1463;51.070;16.998;2023-08-06T07:14:25;4.60;;;1.58;;
2906;SDS011;1463;51.070;16.998;2023-08-06T07:16:55;2.35;;;1.20;;
2906;SDS011;1463;51.070;16.998;2023-08-06T07:19:23;1.90;;;0.95;;
2906;SDS011;1463;51.070;16.998;2023-08-06T07:21:52;2.00;;;0.90;;
2906;SDS011;1463;51.070;16.998;2023-08-06T07:24:21;2.08;;;1.10;;
2906;SDS011;1463;51.070;16.998;2023-08-06T07:26:48;1.98;;;0.73;;
2906;SDS011;1463;51.070;16.998;2023-08-06T07:29:17;1.80;;;1.10;;
2906;SDS011;1463;51.070;16.998;2023-08-06T07:31:47;2.10;;;1.10;;
2906;SDS011;1463;51.070;16.998;2023-08-06T07:34:15;2.13;;;0.95;;
2906;SDS011;1463;51.070;16.998;2023-08-06T07:36:43;1.67;;;1.10;;
2906;SDS011;1463;51.070;16.998;2023-08-06T07:39:13;1.65;;;1.02;;
2906;SDS011;1463;51.070;16.998;2023-08-06T07:41:41;8.30;;;1.43;;
2906;SDS011;1463;51.070;16.998;2023-08-06T07:44:11;1.60;;;1.05;;
2906;SDS011;1463;51.070;16.998;2023-08-06T07:46:38;4.15;;;1.20;;
2906;SDS011;1463;51.070;16.998;2023-08-06T07:49:09;1.95;;;1.20;;
2906;SDS011;1463;51.070;16.998;2023-08-06T07:51:37;2.00;;;1.38;;
2906;SDS011;1463;51.070;16.998;2023-08-06T07:54:05;2.00;;;1.40;;
2906;SDS011;1463;51.070;16.998;2023-08-06T07:56:34;1.75;;;1.20;;
2906;SDS011;1463;51.070;16.998;2023-08-06T07:59:04;2.40;;;1.52;;
2906;SDS011;1463;51.070;16.998;2023-08-06T08:01:31;2.00;;;1.35;;
2906;SDS011;1463;51.070;16.998;2023-08-06T08:04:00;2.72;;;1.70;;
2906;SDS011;1463;51.070;16.998;2023-08-06T08:06:27;3.20;;;2.27;;
2906;SDS011;1463;51.070;16.998;2023-08-06T08:08:55;2.17;;;1.60;;
2906;SDS011;1463;51.070;16.998;2023-08-06T08:11:22;2.47;;;1.67;;
2906;SDS011;1463;51.070;16.998;2023-08-06T08:13:51;2.00;;;1.50;;
2906;SDS011;1463;51.070;16.998;2023-08-06T08:16:19;3.10;;;2.25;;
2906;SDS011;1463;51.070;16.998;2023-08-06T08:18:46;2.43;;;1.57;;
2906;SDS011;1463;51.070;16.998;2023-08-06T08:21:14;2.23;;;1.40;;
2906;SDS011;1463;51.070;16.998;2023-08-06T08:23:41;3.07;;;1.40;;
2906;SDS011;1463;51.070;16.998;2023-08-06T08:26:09;3.15;;;1.40;;
2906;SDS011;1463;51.070;16.998;2023-08-06T08:28:36;2.40;;;1.10;;
2906;SDS011;1463;51.070;16.998;2023-08-06T08:31:09;2.50;;;1.10;;
2906;SDS011;1463;51.070;16.998;2023-08-06T08:33:37;1.98;;;1.20;;
2906;SDS011;1463;51.070;16.998;2023-08-06T08:36:04;2.50;;;1.70;;
2906;SDS011;1463;51.070;16.998;2023-08-06T08:38:32;2.67;;;1.10;;
2906;SDS011;1463;51.070;16.998;2023-08-06T08:40:59;1.60;;;1.00;;
2906;SDS011;1463;51.070;16.998;2023-08-06T08:43:27;1.80;;;1.05;;
2906;SDS011;1463;51.070;16.998;2023-08-06T08:45:56;1.88;;;1.30;;
2906;SDS011;1463;51.070;16.998;2023-08-06T08:48:26;2.17;;;1.50;;
2906;SDS011;1463;51.070;16.998;2023-08-06T08:50:58;2.70;;;1.40;;
2906;SDS011;1463;51.070;16.998;2023-08-06T08:53:26;1.80;;;1.20;;
2906;SDS011;1463;51.070;16.998;2023-08-06T08:55:54;2.25;;;1.10;;
2906;SDS011;1463;51.070;16.998;2023-08-06T08:58:22;2.47;;;0.90;;
2906;SDS011;1463;51.070;16.998;2023-08-06T09:00:50;3.17;;;1.30;;
2906;SDS011;1463;51.070;16.998;2023-08-06T09:03:18;1.70;;;0.90;;
2906;SDS011;1463;51.070;16.998;2023-08-06T09:05:49;2.00;;;1.00;;
2906;SDS011;1463;51.070;16.998;2023-08-06T09:08:23;1.50;;;0.80;;
2906;SDS011;1463;51.070;16.998;2023-08-06T09:10:54;3.58;;;0.93;;
2906;SDS011;1463;51.070;16.998;2023-08-06T09:13:23;2.03;;;0.75;;
2906;SDS011;1463;51.070;16.998;2023-08-06T09:15:51;2.20;;;1.50;;
2906;SDS011;1463;51.070;16.998;2023-08-06T09:18:24;2.73;;;1.20;;
2906;SDS011;1463;51.070;16.998;2023-08-06T09:20:57;1.90;;;1.00;;
2906;SDS011;1463;51.070;16.998;2023-08-06T09:23:27;1.80;;;1.10;;
2906;SDS011;1463;51.070;16.998;2023-08-06T09:25:56;1.75;;;0.80;;
2906;SDS011;1463;51.070;16.998;2023-08-06T09:28:24;1.88;;;0.98;;
2906;SDS011;1463;51.070;16.998;2023-08-06T09:30:52;1.60;;;0.98;;
2906;SDS011;1463;51.070;16.998;2023-08-06T09:33:22;2.20;;;1.00;;
2906;SDS011;1463;51.070;16.998;2023-08-06T09:35:50;1.60;;;0.70;;
2906;SDS011;1463;51.070;16.998;2023-08-06T09:38:20;1.88;;;1.00;;
2906;SDS011;1463;51.070;16.998;2023-08-06T09:40:47;1.60;;;0.87;;
2906;SDS011;1463;51.070;16.998;2023-08-06T09:43:15;3.08;;;0.90;;
2906;SDS011;1463;51.070;16.998;2023-08-06T09:45:45;1.60;;;0.85;;
2906;SDS011;1463;51.070;16.998;2023-08-06T09:48:13;1.70;;;0.80;;
2906;SDS011;1463;51.070;16.998;2023-08-06T09:50:44;1.90;;;1.00;;
2906;SDS011;1463;51.070;16.998;2023-08-06T09:53:17;1.90;;;1.08;;
2906;SDS011;1463;51.070;16.998;2023-08-06T09:55:47;2.03;;;1.30;;
2906;SDS011;1463;51.070;16.998;2023-08-06T09:58:14;1.92;;;1.35;;
2906;SDS011;1463;51.070;16.998;2023-08-06T10:00:42;3.05;;;1.45;;
2906;SDS011;1463;51.070;16.998;2023-08-06T10:03:10;3.25;;;1.75;;
2906;SDS011;1463;51.070;16.998;2023-08-06T10:05:39;4.40;;;2.53;;
2906;SDS011;1463;51.070;16.998;2023-08-06T10:08:08;1.75;;;1.10;;
2906;SDS011;1463;51.070;16.998;2023-08-06T10:10:37;2.35;;;1.10;;
2906;SDS011;1463;51.070;16.998;2023-08-06T10:13:04;4.00;;;1.50;;
2906;SDS011;1463;51.070;16.998;2023-08-06T10:15:34;2.55;;;1.30;;
2906;SDS011;1463;51.070;16.998;2023-08-06T10:18:03;1.97;;;1.03;;
2906;SDS011;1463;51.070;16.998;2023-08-06T10:20:33;2.20;;;1.30;;
2906;SDS011;1463;51.070;16.998;2023-08-06T10:23:01;2.92;;;1.17;;
2906;SDS011;1463;51.070;16.998;2023-08-06T10:25:32;2.47;;;1.77;;
2906;SDS011;1463;51.070;16.998;2023-08-06T10:28:02;2.53;;;1.87;;
2906;SDS011;1463;51.070;16.998;2023-08-06T10:30:41;4.37;;;2.93;;
2906;SDS011;1463;51.070;16.998;2023-08-06T10:33:10;2.27;;;1.23;;
2906;SDS011;1463;51.070;16.998;2023-08-06T10:35:38;8.00;;;2.10;;
2906;SDS011;1463;51.070;16.998;2023-08-06T10:38:09;2.50;;;1.37;;
2906;SDS011;1463;51.070;16.998;2023-08-06T10:40:39;2.20;;;1.50;;
2906;SDS011;1463;51.070;16.998;2023-08-06T10:43:12;2.40;;;1.40;;
2906;SDS011;1463;51.070;16.998;2023-08-06T10:45:55;2.37;;;1.23;;
2906;SDS011;1463;51.070;16.998;2023-08-06T10:48:29;2.38;;;1.23;;
2906;SDS011;1463;51.070;16.998;2023-08-06T10:50:59;2.03;;;1.30;;
2906;SDS011;1463;51.070;16.998;2023-08-06T10:53:28;2.88;;;2.10;;
2906;SDS011;1463;51.070;16.998;2023-08-06T10:55:57;2.93;;;1.20;;
2906;SDS011;1463;51.070;16.998;2023-08-06T10:58:30;1.80;;;1.00;;
2906;SDS011;1463;51.070;16.998;2023-08-06T11:00:58;3.90;;;1.10;;
2906;SDS011;1463;51.070;16.998;2023-08-06T11:03:29;1.80;;;1.13;;
2906;SDS011;1463;51.070;16.998;2023-08-06T11:06:01;1.60;;;0.80;;
2906;SDS011;1463;51.070;16.998;2023-08-06T11:08:32;2.20;;;1.50;;
2906;SDS011;1463;51.070;16.998;2023-08-06T11:11:07;1.70;;;1.00;;
2906;SDS011;1463;51.070;16.998;2023-08-06T11:13:38;2.00;;;0.98;;
2906;SDS011;1463;51.070;16.998;2023-08-06T11:16:06;3.70;;;1.00;;
2906;SDS011;1463;51.070;16.998;2023-08-06T11:18:34;2.50;;;1.17;;
2906;SDS011;1463;51.070;16.998;2023-08-06T11:21:01;2.23;;;1.10;;
2906;SDS011;1463;51.070;16.998;2023-08-06T11:23:29;1.70;;;0.90;;
2906;SDS011;1463;51.070;16.998;2023-08-06T11:25:59;1.60;;;0.90;;
2906;SDS011;1463;51.070;16.998;2023-08-06T11:28:31;2.00;;;0.97;;
2906;SDS011;1463;51.070;16.998;2023-08-06T11:31:00;2.73;;;1.03;;
2906;SDS011;1463;51.070;16.998;2023-08-06T11:33:29;2.53;;;1.23;;
2906;SDS011;1463;51.070;16.998;2023-08-06T11:35:57;2.07;;;0.93;;
2906;SDS011;1463;51.070;16.998;2023-08-06T11:38:28;2.00;;;0.90;;
2906;SDS011;1463;51.070;16.998;2023-08-06T11:40:57;1.58;;;0.70;;
2906;SDS011;1463;51.070;16.998;2023-08-06T11:43:25;1.60;;;1.00;;
2906;SDS011;1463;51.070;16.998;2023-08-06T11:46:03;1.90;;;1.03;;
2906;SDS011;1463;51.070;16.998;2023-08-06T11:48:31;2.72;;;0.98;;
2906;SDS011;1463;51.070;16.998;2023-08-06T11:51:00;2.10;;;1.10;;
2906;SDS011;1463;51.070;16.998;2023-08-06T11:53:30;2.13;;;1.02;;
2906;SDS011;1463;51.070;16.998;2023-08-06T11:55:59;1.83;;;1.07;;
2906;SDS011;1463;51.070;16.998;2023-08-06T11:58:29;2.60;;;1.20;;
2906;SDS011;1463;51.070;16.998;2023-08-06T12:01:03;3.37;;;1.20;;
2906;SDS011;1463;51.070;16.998;2023-08-06T12:03:42;2.63;;;1.20;;
2906;SDS011;1463;51.070;16.998;2023-08-06T12:06:10;2.03;;;1.00;;
2906;SDS011;1463;51.070;16.998;2023-08-06T12:08:39;1.97;;;1.30;;
2906;SDS011;1463;51.070;16.998;2023-08-06T12:11:08;2.20;;;1.33;;
2906;SDS011;1463;51.070;16.998;2023-08-06T12:13:38;2.08;;;1.20;;
2906;SDS011;1463;51.070;16.998;2023-08-06T12:16:09;1.93;;;1.10;;
2906;SDS011;1463;51.070;16.998;2023-08-06T12:21:27;2.93;;;1.20;;
2906;SDS011;1463;51.070;16.998;2023-08-06T12:23:59;2.53;;;1.40;;
2906;SDS011;1463;51.070;16.998;2023-08-06T12:26:26;2.57;;;1.27;;
2906;SDS011;1463;51.070;16.998;2023-08-06T12:28:54;2.30;;;1.40;;
2906;SDS011;1463;51.070;16.998;2023-08-06T12:31:24;3.97;;;1.10;;
2906;SDS011;1463;51.070;16.998;2023-08-06T12:33:51;3.13;;;1.27;;
2906;SDS011;1463;51.070;16.998;2023-08-06T12:36:19;2.30;;;1.50;;
2906;SDS011;1463;51.070;16.998;2023-08-06T12:38:46;1.87;;;1.37;;
2906;SDS011;1463;51.070;16.998;2023-08-06T12:41:14;2.03;;;1.27;;
2906;SDS011;1463;51.070;16.998;2023-08-06T12:43:43;3.17;;;1.53;;
2906;SDS011;1463;51.070;16.998;2023-08-06T12:46:10;1.90;;;1.40;;
2906;SDS011;1463;51.070;16.998;2023-08-06T12:48:40;1.93;;;1.07;;
2906;SDS011;1463;51.070;16.998;2023-08-06T12:51:07;1.65;;;1.10;;
2906;SDS011;1463;51.070;16.998;2023-08-06T12:53:35;2.70;;;1.73;;
2906;SDS011;1463;51.070;16.998;2023-08-06T12:56:03;2.30;;;1.47;;
2906;SDS011;1463;51.070;16.998;2023-08-06T12:58:33;2.10;;;1.20;;
2906;SDS011;1463;51.070;16.998;2023-08-06T13:01:01;2.40;;;1.47;;
2906;SDS011;1463;51.070;16.998;2023-08-06T13:03:29;2.35;;;1.30;;
2906;SDS011;1463;51.070;16.998;2023-08-06T13:05:58;2.30;;;1.60;;
2906;SDS011;1463;51.070;16.998;2023-08-06T13:08:26;1.87;;;1.20;;
2906;SDS011;1463;51.070;16.998;2023-08-06T13:10:54;2.83;;;1.40;;
2906;SDS011;1463;51.070;16.998;2023-08-06T13:13:22;2.10;;;1.50;;
2906;SDS011;1463;51.070;16.998;2023-08-06T13:15:53;2.30;;;1.50;;
2906;SDS011;1463;51.070;16.998;2023-08-06T13:18:22;2.90;;;1.70;;
2906;SDS011;1463;51.070;16.998;2023-08-06T13:21:05;2.10;;;1.40;;
2906;SDS011;1463;51.070;16.998;2023-08-06T13:23:33;3.22;;;1.65;;
2906;SDS011;1463;51.070;16.998;2023-08-06T13:26:02;5.13;;;3.00;;
2906;SDS011;1463;51.070;16.998;2023-08-06T13:28:33;4.15;;;2.90;;
2906;SDS011;1463;51.070;16.998;2023-08-06T13:31:03;2.30;;;1.47;;
2906;SDS011;1463;51.070;16.998;2023-08-06T13:33:31;2.75;;;1.90;;
2906;SDS011;1463;51.070;16.998;2023-08-06T13:35:59;2.00;;;1.35;;
2906;SDS011;1463;51.070;16.998;2023-08-06T13:38:28;2.80;;;1.60;;
2906;SDS011;1463;51.070;16.998;2023-08-06T13:40:56;2.00;;;1.48;;
2906;SDS011;1463;51.070;16.998;2023-08-06T13:43:28;2.40;;;1.25;;
2906;SDS011;1463;51.070;16.998;2023-08-06T13:45:56;2.30;;;1.40;;
2906;SDS011;1463;51.070;16.998;2023-08-06T13:48:27;2.60;;;1.30;;
2906;SDS011;1463;51.070;16.998;2023-08-06T13:50:56;1.90;;;1.30;;
2906;SDS011;1463;51.070;16.998;2023-08-06T13:53:25;3.33;;;1.60;;
2906;SDS011;1463;51.070;16.998;2023-08-06T13:56:04;2.50;;;1.80;;
2906;SDS011;1463;51.070;16.998;2023-08-06T13:58:35;4.03;;;1.30;;
2906;SDS011;1463;51.070;16.998;2023-08-06T14:01:09;3.00;;;1.57;;
2906;SDS011;1463;51.070;16.998;2023-08-06T14:03:39;2.20;;;1.57;;
2906;SDS011;1463;51.070;16.998;2023-08-06T14:06:08;3.17;;;1.53;;
2906;SDS011;1463;51.070;16.998;2023-08-06T14:08:36;2.00;;;1.53;;
2906;SDS011;1463;51.070;16.998;2023-08-06T14:11:06;5.40;;;4.80;;
2906;SDS011;1463;51.070;16.998;2023-08-06T14:13:39;1.90;;;1.30;;
2906;SDS011;1463;51.070;16.998;2023-08-06T14:16:07;2.13;;;1.60;;
2906;SDS011;1463;51.070;16.998;2023-08-06T14:18:35;2.65;;;1.50;;
2906;SDS011;1463;51.070;16.998;2023-08-06T14:21:03;2.87;;;1.20;;
2906;SDS011;1463;51.070;16.998;2023-08-06T14:23:31;2.33;;;1.27;;
2906;SDS011;1463;51.070;16.998;2023-08-06T14:26:00;2.50;;;1.53;;
2906;SDS011;1463;51.070;16.998;2023-08-06T14:28:33;2.17;;;1.30;;
2906;SDS011;1463;51.070;16.998;2023-08-06T14:31:02;4.90;;;1.67;;
2906;SDS011;1463;51.070;16.998;2023-08-06T14:33:30;2.00;;;1.20;;
2906;SDS011;1463;51.070;16.998;2023-08-06T14:35:59;3.00;;;1.50;;
2906;SDS011;1463;51.070;16.998;2023-08-06T14:38:28;2.78;;;1.50;;
2906;SDS011;1463;51.070;16.998;2023-08-06T14:40:56;2.10;;;1.37;;
2906;SDS011;1463;51.070;16.998;2023-08-06T14:43:24;2.00;;;1.40;;
2906;SDS011;1463;51.070;16.998;2023-08-06T14:45:54;2.00;;;1.40;;
2906;SDS011;1463;51.070;16.998;2023-08-06T14:48:21;2.53;;;1.60;;
2906;SDS011;1463;51.070;16.998;2023-08-06T14:50:52;2.58;;;1.70;;
2906;SDS011;1463;51.070;16.998;2023-08-06T14:53:22;2.80;;;1.60;;
2906;SDS011;1463;51.070;16.998;2023-08-06T14:55:50;2.13;;;1.40;;
2906;SDS011;1463;51.070;16.998;2023-08-06T14:58:19;2.47;;;1.60;;
2906;SDS011;1463;51.070;16.998;2023-08-06T15:00:47;3.60;;;2.70;;
2906;SDS011;1463;51.070;16.998;2023-08-06T15:03:18;2.83;;;2.10;;
2906;SDS011;1463;51.070;16.998;2023-08-06T15:05:50;3.80;;;1.90;;
2906;SDS011;1463;51.070;16.998;2023-08-06T15:08:18;3.03;;;2.33;;
2906;SDS011;1463;51.070;16.998;2023-08-06T15:10:50;2.67;;;1.77;;
2906;SDS011;1463;51.070;16.998;2023-08-06T15:13:19;6.57;;;2.08;;